createdAt,value
2019-03-05T00:00:30.081Z,100324.86
2019-03-05T00:03:00.836Z,100326.55
2019-03-05T00:05:31.470Z,100325.66
2019-03-05T00:08:01.447Z,100323.98
2019-03-05T00:10:31.851Z,100322.77
2019-03-05T00:13:01.931Z,100311.09
2019-03-05T00:15:32.660Z,100321.43
2019-03-05T00:18:03.416Z,100317.48
2019-03-05T00:20:34.272Z,100305.63
2019-03-05T00:23:05.128Z,100307.75
2019-03-05T00:25:37.052Z,100299.83
2019-03-05T00:28:19.730Z,100294.66
2019-03-05T00:30:59.787Z,100291.75
2019-03-05T00:33:36.453Z,100289.16
2019-03-05T00:36:10.702Z,100292.19
2019-03-05T00:38:53.100Z,100288.25
2019-03-05T00:41:38.793Z,100284.27
2019-03-05T00:44:28.373Z,100292.79
2019-03-05T00:47:20.188Z,100292.92
2019-03-05T00:50:06.268Z,100302.34
2019-03-05T00:52:40.014Z,100303.58
2019-03-05T00:55:13.835Z,100296.27
2019-03-05T00:57:53.079Z,100300.81
2019-03-05T01:00:42.070Z,100301.40
2019-03-05T01:03:28.083Z,100311.45
2019-03-05T01:06:07.975Z,100313.42
2019-03-05T01:08:38.845Z,100310.05
2019-03-05T01:11:09.698Z,100317.52
2019-03-05T01:13:40.456Z,100309.44
2019-03-05T01:16:12.846Z,100317.95
2019-03-05T01:18:43.683Z,100316.13
2019-03-05T01:21:14.456Z,100315.82
2019-03-05T01:23:45.088Z,100313.36
2019-03-05T01:26:15.961Z,100306.50
2019-03-05T01:28:46.713Z,100309.39
2019-03-05T01:31:30.874Z,100311.37
2019-03-05T01:34:03.153Z,100310.59
2019-03-05T01:36:35.546Z,100308.89
2019-03-05T01:39:12.231Z,100313.31
2019-03-05T01:41:43.086Z,100308.89
2019-03-05T01:44:14.749Z,100317.55
2019-03-05T01:46:45.415Z,100318.77
2019-03-05T01:49:16.150Z,100311.30
2019-03-05T01:51:47.020Z,100303.38
2019-03-05T01:54:17.776Z,100304.44
2019-03-05T01:56:48.410Z,100294.69
2019-03-05T01:59:18.491Z,100295.11
2019-03-05T02:01:48.896Z,100296.48
2019-03-05T02:04:18.982Z,100290.08
2019-03-05T02:06:49.500Z,100287.95
2019-03-05T02:09:20.253Z,100281.73
2019-03-05T02:11:51.144Z,100281.91
2019-03-05T02:14:21.965Z,100275.56
2019-03-05T02:16:52.705Z,100274.50
2019-03-05T02:19:37.997Z,100266.57
2019-03-05T02:22:11.291Z,100264.47
2019-03-05T02:25:03.215Z,100265.66
2019-03-05T02:27:42.766Z,100256.55
2019-03-05T02:30:37.047Z,100255.62
2019-03-05T02:33:10.986Z,100262.03
2019-03-05T02:35:56.979Z,100252.46
2019-03-05T02:38:56.370Z,100268.16
2019-03-05T02:41:36.225Z,100262.15
2019-03-05T02:44:44.207Z,100263.98
2019-03-05T02:47:40.530Z,100259.74
2019-03-05T02:50:29.795Z,100255.28
2019-03-05T02:53:06.686Z,100251.66
2019-03-05T02:55:55.445Z,100234.47
2019-03-05T02:58:24.866Z,100231.13
2019-03-05T03:00:57.234Z,100238.70
2019-03-05T03:03:38.627Z,100231.13
2019-03-05T03:06:10.933Z,100228.50
2019-03-05T03:08:41.791Z,100226.81
2019-03-05T03:11:12.535Z,100224.22
2019-03-05T03:13:43.297Z,100224.83
2019-03-05T03:16:14.150Z,100219.62
2019-03-05T03:18:44.907Z,100210.55
2019-03-05T03:21:15.660Z,100213.44
2019-03-05T03:23:46.314Z,100218.84
2019-03-05T03:26:17.167Z,100206.77
2019-03-05T03:28:47.922Z,100209.78
2019-03-05T03:31:18.678Z,100209.02
2019-03-05T03:33:49.215Z,100207.23
2019-03-05T03:36:20.063Z,100194.61
2019-03-05T03:38:50.836Z,100204.09
2019-03-05T03:41:21.588Z,100197.39
2019-03-05T03:43:52.239Z,100184.56
2019-03-05T03:46:24.118Z,100196.20
2019-03-05T03:48:54.978Z,100186.52
2019-03-05T03:51:25.831Z,100183.35
2019-03-05T03:53:56.484Z,100173.91
2019-03-05T03:56:27.341Z,100180.77
2019-03-05T03:58:58.193Z,100180.19
2019-03-05T04:01:28.950Z,100190.84
2019-03-05T04:03:59.497Z,100186.13
2019-03-05T04:06:30.356Z,100185.97
2019-03-05T04:09:01.109Z,100180.80
2019-03-05T04:11:31.862Z,100184.62
2019-03-05T04:14:02.521Z,100186.27
2019-03-05T04:16:33.369Z,100180.36
2019-03-05T04:19:05.658Z,100183.11
2019-03-05T04:21:36.414Z,100174.55
2019-03-05T04:24:07.149Z,100177.77
2019-03-05T04:26:38.033Z,100167.27
2019-03-05T04:29:08.777Z,100158.22
2019-03-05T04:31:39.409Z,100158.25
2019-03-05T04:34:10.163Z,100155.20
2019-03-05T04:36:41.035Z,100158.70
2019-03-05T04:39:12.302Z,100162.79
2019-03-05T04:41:43.156Z,100152.46
2019-03-05T04:44:15.446Z,100154.29
2019-03-05T04:46:48.756Z,100148.99
2019-03-05T04:49:29.942Z,100150.66
2019-03-05T04:52:04.793Z,100154.32
2019-03-05T04:54:35.130Z,100168.69
2019-03-05T04:57:05.988Z,100171.83
2019-03-05T04:59:36.846Z,100180.67
2019-03-05T05:02:07.583Z,100166.35
2019-03-05T05:04:38.351Z,100157.52
2019-03-05T05:07:09.193Z,100156.45
2019-03-05T05:09:39.963Z,100159.02
2019-03-05T05:12:10.714Z,100154.44
2019-03-05T05:14:41.348Z,100148.50
2019-03-05T05:17:12.223Z,100151.21
2019-03-05T05:19:42.856Z,100148.74
2019-03-05T05:22:13.632Z,100152.86
2019-03-05T05:24:44.277Z,100146.76
2019-03-05T05:27:15.117Z,100144.74
2019-03-05T05:29:45.889Z,100123.72
2019-03-05T05:32:16.644Z,100125.63
2019-03-05T05:34:47.294Z,100118.61
2019-03-05T05:37:18.134Z,100117.16
2019-03-05T05:40:23.973Z,100108.75
2019-03-05T05:42:54.943Z,100107.83
2019-03-05T05:45:37.768Z,100099.56
2019-03-05T05:48:09.323Z,100103.12
2019-03-05T05:50:39.786Z,100101.16
2019-03-05T05:53:10.847Z,100093.86
2019-03-05T05:55:41.482Z,100089.30
2019-03-05T05:58:12.251Z,100100.75
2019-03-05T06:00:44.423Z,100095.75
2019-03-05T06:03:15.293Z,100093.33
2019-03-05T06:05:45.741Z,100093.17
2019-03-05T06:08:16.494Z,100094.83
2019-03-05T06:10:47.024Z,100086.24
2019-03-05T06:13:16.996Z,100081.09
2019-03-05T06:15:47.405Z,100081.47
2019-03-05T06:18:17.377Z,100088.97
2019-03-05T06:20:47.910Z,100085.09
2019-03-05T06:23:18.663Z,100087.13
2019-03-05T06:25:49.316Z,100074.20
2019-03-05T06:28:20.173Z,100098.19
2019-03-05T06:30:51.010Z,100093.56
2019-03-05T06:33:21.789Z,100100.04
2019-03-05T06:35:52.640Z,100079.70
2019-03-05T06:38:23.494Z,100090.30
2019-03-05T06:40:54.247Z,100098.45
2019-03-05T06:43:24.795Z,100083.33
2019-03-05T06:45:55.635Z,100095.56
2019-03-05T06:48:27.314Z,100093.38
2019-03-05T06:50:58.246Z,100075.97
2019-03-05T06:53:29.020Z,100079.39
2019-03-05T06:55:59.000Z,100073.72
2019-03-05T06:58:29.409Z,100069.88
2019-03-05T07:00:59.588Z,100054.41
2019-03-05T07:03:30.093Z,100057.78
2019-03-05T07:06:37.063Z,100047.00
2019-03-05T07:09:16.913Z,100031.98
2019-03-05T07:12:18.161Z,100022.70
2019-03-05T07:15:10.068Z,100017.98
2019-03-05T07:17:49.414Z,100019.11
2019-03-05T07:20:39.924Z,100010.27
2019-03-05T07:23:19.457Z,99999.39
2019-03-05T07:25:50.022Z,100000.23
2019-03-05T07:28:20.551Z,100009.93
2019-03-05T07:30:51.427Z,100005.77
2019-03-05T07:33:22.178Z,100001.14
2019-03-05T07:35:52.915Z,99989.04
2019-03-05T07:38:23.364Z,99996.28
2019-03-05T07:40:53.342Z,99990.70
2019-03-05T07:43:23.866Z,99993.91
2019-03-05T07:45:53.727Z,99991.86
2019-03-05T07:48:24.353Z,99991.05
2019-03-05T07:50:56.026Z,99993.50
2019-03-05T07:53:26.574Z,100000.03
2019-03-05T07:55:57.412Z,99984.38
2019-03-05T07:58:27.380Z,99977.16
2019-03-05T08:00:57.710Z,99966.50
2019-03-05T08:03:28.259Z,99971.17
2019-03-05T08:05:58.125Z,99968.56
2019-03-05T08:09:05.869Z,99963.96
2019-03-05T08:11:36.305Z,99977.12
2019-03-05T08:14:19.040Z,99971.31
2019-03-05T08:16:49.688Z,99971.19
2019-03-05T08:19:20.345Z,99966.10
2019-03-05T08:21:50.874Z,99970.48
2019-03-05T08:24:20.853Z,99964.69
2019-03-05T08:26:51.381Z,99963.44
2019-03-05T08:29:22.128Z,99961.80
2019-03-05T08:31:52.946Z,99959.69
2019-03-05T08:34:23.211Z,99965.70
2019-03-05T08:36:53.181Z,99950.91
2019-03-05T08:39:23.594Z,99943.61
2019-03-05T08:41:54.260Z,99940.61
2019-03-05T08:44:25.015Z,99936.33
2019-03-05T08:46:55.857Z,99930.42
2019-03-05T08:49:26.627Z,99921.62
2019-03-05T08:51:58.300Z,99920.80
2019-03-05T08:54:28.649Z,99909.58
2019-03-05T08:56:59.398Z,99905.89
2019-03-05T08:59:32.565Z,99912.70
2019-03-05T09:02:02.221Z,99917.45
2019-03-05T09:04:32.784Z,99931.86
2019-03-05T09:07:03.540Z,99910.25
2019-03-05T09:09:33.503Z,99912.05
2019-03-05T09:12:04.027Z,99908.98
2019-03-05T09:14:34.615Z,99923.45
2019-03-05T09:17:05.211Z,99908.22
2019-03-05T09:19:35.774Z,99908.22
2019-03-05T09:22:05.731Z,99888.20
2019-03-05T09:24:36.140Z,99900.77
2019-03-05T09:27:06.691Z,99895.27
2019-03-05T09:29:37.548Z,99896.86
2019-03-05T09:32:08.198Z,99883.00
2019-03-05T09:34:38.971Z,99873.95
2019-03-05T09:37:09.502Z,99869.81
2019-03-05T09:39:40.377Z,99870.75
2019-03-05T09:42:11.333Z,99866.02
2019-03-05T09:44:41.081Z,99869.60
2019-03-05T09:47:11.615Z,99864.63
2019-03-05T09:49:42.368Z,99855.50
2019-03-05T09:52:14.025Z,99855.89
2019-03-05T09:54:44.798Z,99839.55
2019-03-05T09:57:15.534Z,99834.83
2019-03-05T09:59:46.404Z,99822.66
2019-03-05T10:02:17.160Z,99821.91
2019-03-05T10:04:47.897Z,99821.11
2019-03-05T10:07:19.380Z,99815.56
2019-03-05T10:09:50.225Z,99817.19
2019-03-05T10:12:21.095Z,99820.97
2019-03-05T10:14:51.953Z,99810.31
2019-03-05T10:17:22.587Z,99806.91
2019-03-05T10:19:52.769Z,99797.20
2019-03-05T10:22:23.295Z,99794.75
2019-03-05T10:24:53.926Z,99782.19
2019-03-05T10:27:25.194Z,99774.27
2019-03-05T10:29:55.967Z,99770.32
2019-03-05T10:32:26.597Z,99766.36
2019-03-05T10:34:57.350Z,99742.97
2019-03-05T10:37:28.109Z,99739.33
2019-03-05T10:39:58.878Z,99730.28
2019-03-05T10:42:31.910Z,99727.19
2019-03-05T10:45:01.731Z,99727.45
2019-03-05T10:47:32.572Z,99720.28
2019-03-05T10:50:03.308Z,99721.38
2019-03-05T10:52:34.897Z,99705.98
2019-03-05T10:55:08.831Z,99693.69
2019-03-05T10:57:39.371Z,99690.69
2019-03-05T11:00:26.366Z,99687.47
2019-03-05T11:02:56.937Z,99686.52
2019-03-05T11:05:28.820Z,99675.92
2019-03-05T11:07:59.160Z,99654.45
2019-03-05T11:10:31.263Z,99666.20
2019-03-05T11:13:01.893Z,99654.95
2019-03-05T11:15:36.336Z,99643.74
2019-03-05T11:18:08.601Z,99632.42
2019-03-05T11:20:39.454Z,99629.42
2019-03-05T11:23:11.706Z,99625.24
2019-03-05T11:25:42.413Z,99630.69
2019-03-05T11:28:13.149Z,99623.39
2019-03-05T11:30:44.025Z,99628.52
2019-03-05T11:33:14.367Z,99603.89
2019-03-05T11:35:45.123Z,99592.44
2019-03-05T11:38:16.063Z,99593.51
2019-03-05T11:40:46.940Z,99607.63
2019-03-05T11:43:18.406Z,99617.13
2019-03-05T11:45:48.956Z,99628.78
2019-03-05T11:48:19.711Z,99619.70
2019-03-05T11:50:51.647Z,99627.89
2019-03-05T11:53:23.460Z,99627.02
2019-03-05T11:55:53.919Z,99625.30
2019-03-05T11:58:24.654Z,99629.05
2019-03-05T12:01:02.990Z,99627.21
2019-03-05T12:03:33.744Z,99605.27
2019-03-05T12:06:04.500Z,99619.37
2019-03-05T12:08:35.028Z,99615.50
2019-03-05T12:11:05.500Z,99624.21
2019-03-05T12:13:36.460Z,99613.95
2019-03-05T12:16:07.411Z,99603.20
2019-03-05T12:18:38.373Z,99607.78
2019-03-05T12:21:09.208Z,99597.37
2019-03-05T12:23:46.719Z,99583.89
2019-03-05T12:26:12.166Z,99575.77
2019-03-05T12:28:42.923Z,99556.32
2019-03-05T12:31:13.778Z,99569.73
2019-03-05T12:33:44.635Z,99574.77
2019-03-05T12:36:15.387Z,99584.41
2019-03-05T12:38:46.408Z,99583.00
2019-03-05T12:41:17.405Z,99590.92
2019-03-05T12:43:48.040Z,99584.00
2019-03-05T12:46:18.008Z,99600.66
2019-03-05T12:48:48.542Z,99595.88
2019-03-05T12:51:19.193Z,99613.73
2019-03-05T12:53:50.154Z,99598.48
2019-03-05T12:56:24.154Z,99597.10
2019-03-05T12:58:53.093Z,99591.13
2019-03-05T13:01:23.745Z,99610.27
2019-03-05T13:03:54.482Z,99603.55
2019-03-05T13:06:25.458Z,99605.69
2019-03-05T13:08:55.104Z,99597.77
2019-03-05T13:11:25.516Z,99602.80
2019-03-05T13:14:05.751Z,99606.20
2019-03-05T13:16:28.165Z,99595.82
2019-03-05T13:18:58.919Z,99608.05
2019-03-05T13:21:29.552Z,99594.34
2019-03-05T13:24:00.428Z,99595.34
2019-03-05T13:26:31.077Z,99584.64
2019-03-05T13:29:01.814Z,99606.38
2019-03-05T13:31:32.484Z,99602.48
2019-03-05T13:34:03.235Z,99599.21
2019-03-05T13:36:34.091Z,99600.28
2019-03-05T13:39:05.245Z,99590.34
2019-03-05T13:41:35.805Z,99614.92
2019-03-05T13:44:08.079Z,99618.45
2019-03-05T13:46:38.727Z,99607.79
2019-03-05T13:49:17.947Z,99594.43
2019-03-05T13:52:08.667Z,99603.17
2019-03-05T13:54:49.794Z,99606.38
2019-03-05T13:57:26.251Z,99607.01
2019-03-05T13:59:57.104Z,99596.42
2019-03-05T14:02:29.000Z,99601.78
2019-03-05T14:05:11.911Z,99594.66
2019-03-05T14:08:08.536Z,99601.90
2019-03-05T14:10:39.192Z,99593.90
2019-03-05T14:13:10.565Z,99595.70
2019-03-05T14:15:43.071Z,99588.98
2019-03-05T14:18:13.807Z,99584.70
2019-03-05T14:20:44.648Z,99600.62
2019-03-05T14:23:15.397Z,99595.37
2019-03-05T14:25:46.151Z,99594.28
2019-03-05T14:28:16.813Z,99590.97
2019-03-05T14:30:47.722Z,99595.65
2019-03-05T14:33:18.549Z,99604.08
2019-03-05T14:35:49.287Z,99594.05
2019-03-05T14:38:20.042Z,99609.94
2019-03-05T14:40:50.883Z,99605.14
2019-03-05T14:43:21.561Z,99605.05
2019-03-05T14:45:51.715Z,99617.83
2019-03-05T14:48:22.151Z,99611.42
2019-03-05T14:50:52.922Z,99607.15
2019-03-05T14:53:23.786Z,99611.72
2019-03-05T14:55:55.525Z,99615.57
2019-03-05T14:58:26.410Z,99619.73
2019-03-05T15:00:57.265Z,99616.30
2019-03-05T15:03:27.808Z,99608.48
2019-03-05T15:05:58.643Z,99609.64
2019-03-05T15:08:29.397Z,99613.97
2019-03-05T15:11:00.141Z,99607.13
2019-03-05T15:13:30.722Z,99609.23
2019-03-05T15:16:01.540Z,99613.59
2019-03-05T15:18:32.448Z,99621.40
2019-03-05T15:21:03.268Z,99617.96
2019-03-05T15:23:34.005Z,99628.58
2019-03-05T15:26:04.888Z,99627.52
2019-03-05T15:28:35.649Z,99622.02
2019-03-05T15:31:06.303Z,99630.95
2019-03-05T15:33:37.368Z,99626.69
2019-03-05T15:36:08.103Z,99629.94
2019-03-05T15:38:38.637Z,99641.84
2019-03-05T15:41:09.504Z,99648.52
2019-03-05T15:43:40.363Z,99654.15
2019-03-05T15:46:11.259Z,99664.03
2019-03-05T15:48:42.180Z,99668.61
2019-03-05T15:51:12.926Z,99679.50
2019-03-05T15:56:15.357Z,99695.48
2019-03-05T15:58:45.700Z,99704.59
2019-03-05T16:01:22.351Z,99710.18
2019-03-05T16:03:50.276Z,99722.91
2019-03-05T16:06:21.133Z,99725.95
2019-03-05T16:08:51.772Z,99736.90
2019-03-05T16:11:21.737Z,99740.23
2019-03-05T16:13:56.367Z,99746.88
2019-03-05T16:16:24.337Z,99754.30
2019-03-05T16:18:54.417Z,99762.30
2019-03-05T16:21:24.821Z,99767.06
2019-03-05T16:23:55.591Z,99766.70
2019-03-05T16:26:26.330Z,99776.36
2019-03-05T16:28:57.204Z,99782.55
2019-03-05T16:31:32.559Z,99792.38
2019-03-05T16:34:04.643Z,99788.48
2019-03-05T16:36:55.119Z,99805.88
2019-03-05T16:39:31.815Z,99804.69
2019-03-05T16:42:13.826Z,99805.52
2019-03-05T16:44:52.544Z,99819.56
2019-03-05T16:47:25.236Z,99827.06
2019-03-05T16:50:15.747Z,99843.27
2019-03-05T16:52:47.930Z,99853.67
2019-03-05T16:55:29.508Z,99849.20
2019-03-05T16:58:14.804Z,99849.16
2019-03-05T17:00:59.466Z,99856.44
2019-03-05T17:03:40.754Z,99873.58
2019-03-05T17:06:15.804Z,99899.14
2019-03-05T17:09:03.110Z,99905.19
2019-03-05T17:11:35.416Z,99903.28
2019-03-05T17:14:15.068Z,99924.58
2019-03-05T17:16:45.908Z,99926.11
2019-03-05T17:19:16.778Z,99928.53
2019-03-05T17:21:47.719Z,99931.29
2019-03-05T17:24:18.687Z,99939.23
2019-03-05T17:26:49.144Z,99948.48
2019-03-05T17:29:19.778Z,99954.14
2019-03-05T17:31:50.532Z,99959.66
2019-03-05T17:34:21.301Z,99957.61
2019-03-05T17:36:52.159Z,99958.13
2019-03-05T17:39:23.219Z,99959.25
2019-03-05T17:41:53.854Z,99964.84
2019-03-05T17:44:24.732Z,99963.58
2019-03-05T17:46:55.468Z,99976.47
2019-03-05T17:49:26.257Z,99985.96
2019-03-05T17:51:56.884Z,99990.72
2019-03-05T17:54:27.741Z,99999.59
2019-03-05T17:56:58.687Z,100001.80
2019-03-05T17:59:30.283Z,100007.29
2019-03-05T18:02:00.723Z,100009.37
2019-03-05T18:04:31.576Z,100017.94
2019-03-05T18:07:02.620Z,100017.13
2019-03-05T18:09:33.274Z,100019.19
2019-03-05T18:12:03.353Z,100023.23
2019-03-05T18:14:33.859Z,100024.19
2019-03-05T18:17:04.323Z,100024.59
2019-03-05T18:19:34.386Z,100033.44
2019-03-05T18:22:05.100Z,100035.16
2019-03-05T18:24:35.768Z,100038.08
2019-03-05T18:27:06.709Z,100042.89
2019-03-05T18:29:37.688Z,100046.63
2019-03-05T18:32:08.334Z,100055.02
2019-03-05T18:34:39.071Z,100053.66
2019-03-05T18:37:09.929Z,100056.41
2019-03-05T18:39:42.626Z,100052.69
2019-03-05T18:42:13.482Z,100058.37
2019-03-05T18:44:44.238Z,100059.39
2019-03-05T18:47:14.885Z,100056.70
2019-03-05T18:49:46.299Z,100056.68
2019-03-05T18:52:16.804Z,100069.67
2019-03-05T18:54:47.458Z,100073.39
2019-03-05T18:57:18.312Z,100078.48
2019-03-05T18:59:50.104Z,100083.77
2019-03-05T19:02:20.963Z,100086.73
2019-03-05T19:04:51.697Z,100093.21
2019-03-05T19:07:21.668Z,100100.63
2019-03-05T19:09:52.204Z,100101.95
2019-03-05T19:12:23.143Z,100100.23
2019-03-05T19:14:53.800Z,100108.56
2019-03-05T19:17:24.975Z,100113.25
2019-03-05T19:19:55.918Z,100113.66
2019-03-05T19:22:26.685Z,100114.52
2019-03-05T19:24:57.422Z,100116.03
2019-03-05T19:27:28.197Z,100125.81
2019-03-05T19:29:59.051Z,100120.16
2019-03-05T19:32:29.788Z,100131.64
2019-03-05T19:35:00.647Z,100137.45
2019-03-05T19:37:31.318Z,100143.19
2019-03-05T19:40:02.150Z,100144.48
2019-03-05T19:42:32.923Z,100151.39
2019-03-05T19:45:04.197Z,100158.70
2019-03-05T19:47:34.631Z,100155.77
2019-03-05T19:50:08.558Z,100162.36
2019-03-05T19:52:39.195Z,100162.25
2019-03-05T19:55:10.401Z,100166.02
2019-03-05T19:57:39.927Z,100168.22
2019-03-05T20:00:17.916Z,100166.84
2019-03-05T20:02:48.548Z,100170.78
2019-03-05T20:05:19.321Z,100179.44
2019-03-05T20:07:51.711Z,100175.78
2019-03-05T20:10:25.008Z,100176.77
2019-03-05T20:12:55.656Z,100183.09
2019-03-05T20:15:26.410Z,100177.70
2019-03-05T20:17:59.163Z,100185.13
2019-03-05T20:20:29.352Z,100184.59
2019-03-05T20:23:00.120Z,100190.20
2019-03-05T20:25:31.453Z,100193.17
2019-03-05T20:28:01.818Z,100190.35
2019-03-05T20:30:32.691Z,100195.31
2019-03-05T20:33:03.446Z,100197.66
2019-03-05T20:35:34.078Z,100199.44
2019-03-05T20:38:06.266Z,100193.67
2019-03-05T20:40:37.120Z,100200.02
2019-03-05T20:43:07.893Z,100208.59
2019-03-05T20:45:50.508Z,100208.52
2019-03-05T20:48:23.719Z,100213.20
2019-03-05T20:50:54.470Z,100211.16
2019-03-05T20:53:25.227Z,100208.27
2019-03-05T20:55:56.069Z,100210.80
2019-03-05T20:58:27.126Z,100219.28
2019-03-05T21:00:57.881Z,100216.73
2019-03-05T21:03:28.121Z,100224.27
2019-03-05T21:05:59.094Z,100235.02
2019-03-05T21:08:29.057Z,100228.50
2019-03-05T21:10:59.462Z,100232.05
2019-03-05T21:13:29.438Z,100245.80
2019-03-05T21:15:59.962Z,100247.24
2019-03-05T21:18:32.436Z,100250.90
2019-03-05T21:21:03.343Z,100253.13
2019-03-05T21:23:34.474Z,100256.94
2019-03-05T21:26:04.906Z,100252.19
2019-03-05T21:28:35.761Z,100259.17
2019-03-05T21:31:06.515Z,100251.67
2019-03-05T21:33:37.286Z,100255.70
2019-03-05T21:36:07.938Z,100253.97
2019-03-05T21:38:38.795Z,100259.42
2019-03-05T21:41:09.548Z,100264.16
2019-03-05T21:43:40.284Z,100257.59
2019-03-05T21:46:14.209Z,100253.69
2019-03-05T21:48:45.084Z,100264.25
2019-03-05T21:51:15.717Z,100263.42
2019-03-05T21:53:45.796Z,100274.41
2019-03-05T21:56:16.015Z,100279.60
2019-03-05T21:58:46.647Z,100274.87
2019-03-05T22:01:18.440Z,100285.45
2019-03-05T22:03:49.504Z,100281.28
2019-03-05T22:06:20.460Z,100281.44
2019-03-05T22:08:51.215Z,100281.97
2019-03-05T22:11:21.867Z,100285.36
2019-03-05T22:13:52.721Z,100291.61
2019-03-05T22:16:23.578Z,100287.16
2019-03-05T22:18:54.213Z,100290.84
2019-03-05T22:21:24.191Z,100301.06
2019-03-05T22:23:54.596Z,100297.91
2019-03-05T22:26:25.469Z,100296.42
2019-03-05T22:28:56.326Z,100299.74
2019-03-05T22:31:27.164Z,100307.23
2019-03-05T22:33:57.936Z,100296.91
2019-03-05T22:36:28.587Z,100305.41
2019-03-05T22:38:59.324Z,100310.08
2019-03-05T22:41:30.092Z,100312.19
2019-03-05T22:44:00.848Z,100305.20
2019-03-05T22:46:31.626Z,100309.62
2019-03-05T22:49:01.359Z,100310.27
2019-03-05T22:51:31.780Z,100328.98
2019-03-05T22:54:02.432Z,100328.98
2019-03-05T22:56:33.291Z,100322.09
2019-03-05T22:59:04.144Z,100327.43
2019-03-05T23:01:37.300Z,100319.98
2019-03-05T23:04:07.697Z,100313.41
2019-03-05T23:06:38.435Z,100323.64
2019-03-05T23:09:10.570Z,100335.03
2019-03-05T23:11:40.983Z,100338.98
2019-03-05T23:14:11.839Z,100350.70
2019-03-05T23:16:42.693Z,100357.72
2019-03-05T23:19:13.755Z,100360.77
2019-03-05T23:21:44.304Z,100361.07
2019-03-05T23:24:15.144Z,100359.67
2019-03-05T23:26:45.915Z,100364.73
2019-03-05T23:29:16.549Z,100369.03
2019-03-05T23:31:47.730Z,100372.10
2019-03-05T23:34:18.672Z,100362.06
2019-03-05T23:36:49.237Z,100374.41
2019-03-05T23:39:20.102Z,100383.11
2019-03-05T23:41:50.846Z,100379.02
2019-03-05T23:44:21.584Z,100378.10
2019-03-05T23:46:52.457Z,100375.53
2019-03-05T23:49:23.314Z,100370.67
2019-03-05T23:51:53.966Z,100366.13
2019-03-05T23:54:27.178Z,100377.39
2019-03-05T23:56:59.461Z,100371.47
2019-03-05T23:59:34.920Z,100369.63
